Time;durP1;ratioP1;P1;durP2;ratioP2;P2;SDS_P1;SDS_P2;PMS_P1;PMS_P2;Temp;Humidity;BMP_temperature;BMP_pressure;BME280_temperature;BME280_humidity;BME280_pressure;Samples;Min_cycle;Max_cycle;Signal;HPM_P1;HPM_P2
2022/09/30 03:01:01;;;;;;;;;;;4.80;99.90;;;;;;5882980;23;19940;-68
2022/09/30 03:03:30;;;;;;;;;;;4.80;99.90;;;;;;4969958;28;19926;-69
2022/09/30 03:05:56;;;;;;;;;;;4.80;99.90;;;;;;4972054;28;19926;-68
2022/09/30 03:08:23;;;;;;;;;;;4.80;99.90;;;;;;4975988;28;19972;-68
2022/09/30 03:10:50;;;;;;;;;;;4.80;99.90;;;;;;4975890;28;19977;-67
2022/09/30 03:13:22;;;;;;;;;;;4.80;99.90;;;;;;4974411;28;20005;-69
2022/09/30 03:15:58;;;;;;;;;;;4.70;99.90;;;;;;4975698;28;19930;-68
2022/09/30 03:18:32;;;;;;;;;;;4.70;99.90;;;;;;4975196;28;19933;-68
2022/09/30 03:21:08;;;;;;;;;;;4.70;99.90;;;;;;4976613;28;20029;-67
2022/09/30 03:23:43;;;;;;;;;;;4.60;99.90;;;;;;4975446;28;20057;-67
2022/09/30 03:26:17;;;;;;;;;;;4.60;99.90;;;;;;4975439;28;20021;-68
2022/09/30 03:28:47;;;;;;;;;;;4.60;99.90;;;;;;4975266;28;19926;-68
2022/09/30 03:31:20;;;;;;;;;;;4.60;99.90;;;;;;4974851;28;19926;-68
2022/09/30 03:33:50;;;;;;;;;;;4.60;99.90;;;;;;4976119;28;19932;-67
2022/09/30 03:36:23;;;;;;;;;;;4.60;99.90;;;;;;4975324;28;20262;-67
2022/09/30 03:38:52;;;;;;;;;;;4.50;99.90;;;;;;4975153;28;20138;-67
2022/09/30 03:41:22;;;;;;;;;;;4.50;99.90;;;;;;4974858;28;20016;-67
2022/09/30 03:43:50;;;;;;;;;;;4.50;99.90;;;;;;4974728;28;19930;-68
2022/09/30 03:46:21;;;;;;;;;;;4.50;99.90;;;;;;4975094;28;19930;-68
2022/09/30 03:48:50;;;;;;;;;;;4.50;99.90;;;;;;4974844;28;19929;-70
2022/09/30 03:51:17;;;;;;;;;;;4.50;99.90;;;;;;4974885;28;19976;-68
2022/09/30 03:53:46;;;;;;;;;;;4.50;99.90;;;;;;4974883;28;19926;-68
2022/09/30 03:56:13;;;;;;;;;;;4.50;99.90;;;;;;4974998;28;19961;-68
2022/09/30 03:58:41;;;;;;;;;;;4.40;99.90;;;;;;4974854;28;19926;-68
2022/09/30 04:01:08;;;;;;;;;;;4.40;99.90;;;;;;4974315;28;19950;-67
2022/09/30 04:03:35;;;;;;;;;;;4.40;99.90;;;;;;4974397;28;20389;-68
2022/09/30 04:06:03;;;;;;;;;;;4.40;99.90;;;;;;4974328;28;19941;-68
2022/09/30 04:08:30;;;;;;;;;;;4.40;99.90;;;;;;4974381;28;19930;-68
2022/09/30 04:10:57;;;;;;;;;;;4.30;99.90;;;;;;4974181;28;19930;-68
2022/09/30 04:13:24;;;;;;;;;;;4.30;99.90;;;;;;4973995;28;19926;-67
2022/09/30 04:15:53;;;;;;;;;;;4.30;99.90;;;;;;4974133;28;20483;-67
2022/09/30 04:18:20;;;;;;;;;;;4.30;99.90;;;;;;4973575;28;19930;-68
2022/09/30 04:20:47;;;;;;;;;;;4.30;99.90;;;;;;4974289;28;19949;-72
2022/09/30 04:23:15;;;;;;;;;;;4.30;99.90;;;;;;4974027;28;19926;-66
2022/09/30 04:25:42;;;;;;;;;;;4.20;99.90;;;;;;4974276;28;19954;-68
2022/09/30 04:28:09;;;;;;;;;;;4.20;99.90;;;;;;4974360;28;19934;-68
2022/09/30 04:30:37;;;;;;;;;;;4.10;99.90;;;;;;4973516;28;19926;-68
2022/09/30 04:33:04;;;;;;;;;;;4.10;99.90;;;;;;4973706;28;19978;-67
2022/09/30 04:35:31;;;;;;;;;;;4.20;99.90;;;;;;4973787;28;19962;-68
2022/09/30 04:37:58;;;;;;;;;;;4.20;99.90;;;;;;4973796;28;20008;-67
2022/09/30 04:40:26;;;;;;;;;;;4.20;99.90;;;;;;4972572;28;19930;-67
2022/09/30 04:42:55;;;;;;;;;;;4.20;99.90;;;;;;4973653;28;19927;-68
2022/09/30 04:45:23;;;;;;;;;;;4.20;99.90;;;;;;4974069;28;19926;-68
2022/09/30 04:47:50;;;;;;;;;;;4.20;99.90;;;;;;4974065;28;19926;-67
2022/09/30 04:50:16;;;;;;;;;;;4.30;99.90;;;;;;4973678;28;19953;-67
2022/09/30 04:52:43;;;;;;;;;;;4.30;99.90;;;;;;4973680;28;19926;-67
2022/09/30 04:55:10;;;;;;;;;;;4.20;99.90;;;;;;4973602;28;20429;-66
2022/09/30 04:57:38;;;;;;;;;;;4.20;99.90;;;;;;4973602;28;19933;-67
2022/09/30 05:00:08;;;;;;;;;;;4.20;99.90;;;;;;4972952;28;19977;-66
2022/09/30 05:02:34;;;;;;;;;;;4.10;99.90;;;;;;4969951;28;19926;-67
2022/09/30 05:05:02;;;;;;;;;;;4.10;99.90;;;;;;4973212;28;19930;-67
2022/09/30 05:07:30;;;;;;;;;;;4.00;99.90;;;;;;4992364;28;20384;-67
2022/09/30 05:09:56;;;;;;;;;;;4.00;99.90;;;;;;4991609;28;19927;-67
2022/09/30 05:12:25;;;;;;;;;;;4.00;99.90;;;;;;4974692;28;19930;-67
2022/09/30 05:14:53;;;;;;;;;;;4.00;99.90;;;;;;5004944;28;19956;-67
2022/09/30 05:17:20;;;;;;;;;;;4.00;99.90;;;;;;4972250;28;19973;-67
2022/09/30 05:19:46;;;;;;;;;;;4.10;99.90;;;;;;4979494;28;19926;-66
2022/09/30 05:22:13;;;;;;;;;;;4.10;99.90;;;;;;4991499;28;19930;-67
2022/09/30 05:24:40;;;;;;;;;;;4.00;99.90;;;;;;4991771;28;19926;-67
2022/09/30 05:27:07;;;;;;;;;;;4.10;99.90;;;;;;4991735;28;19933;-67
2022/09/30 05:29:34;;;;;;;;;;;4.10;99.90;;;;;;4991068;28;19926;-67
2022/09/30 05:32:02;;;;;;;;;;;4.00;99.90;;;;;;4991399;28;19976;-68
2022/09/30 05:34:29;;;;;;;;;;;4.00;99.90;;;;;;4991460;28;20324;-67
2022/09/30 05:36:56;;;;;;;;;;;3.90;99.90;;;;;;4983177;28;19933;-68
2022/09/30 05:39:23;;;;;;;;;;;3.90;99.90;;;;;;5004091;28;19926;-67
2022/09/30 05:41:50;;;;;;;;;;;4.00;99.90;;;;;;4971820;28;19934;-67
2022/09/30 05:44:18;;;;;;;;;;;4.00;99.90;;;;;;4971332;28;19985;-67
2022/09/30 05:46:44;;;;;;;;;;;4.10;99.90;;;;;;5004136;28;19949;-67
2022/09/30 05:49:13;;;;;;;;;;;4.10;99.90;;;;;;4970982;28;19930;-67
2022/09/30 05:51:39;;;;;;;;;;;4.10;99.90;;;;;;4971254;28;20348;-67
2022/09/30 05:54:06;;;;;;;;;;;4.10;99.90;;;;;;4971203;28;20353;-68
2022/09/30 05:56:34;;;;;;;;;;;4.10;99.90;;;;;;4971232;28;19926;-67
2022/09/30 05:59:01;;;;;;;;;;;4.20;99.90;;;;;;5003967;28;19989;-70
2022/09/30 06:01:28;;;;;;;;;;;4.20;99.90;;;;;;5003956;28;19926;-67
2022/09/30 06:03:54;;;;;;;;;;;4.20;99.90;;;;;;4971536;28;19930;-67
2022/09/30 06:06:22;;;;;;;;;;;4.30;99.90;;;;;;4971513;28;19957;-69
2022/09/30 06:08:49;;;;;;;;;;;4.30;99.90;;;;;;4971137;28;20062;-67
2022/09/30 06:11:17;;;;;;;;;;;4.30;99.90;;;;;;4980889;28;19926;-68
2022/09/30 06:13:44;;;;;;;;;;;4.40;99.90;;;;;;4990759;28;19925;-67
2022/09/30 06:16:12;;;;;;;;;;;4.50;99.90;;;;;;4990813;28;20388;-67
2022/09/30 06:18:40;;;;;;;;;;;4.50;99.90;;;;;;4990674;28;19926;-67
2022/09/30 06:21:08;;;;;;;;;;;4.60;99.90;;;;;;4990489;28;20422;-67
2022/09/30 06:23:36;;;;;;;;;;;4.70;99.90;;;;;;4990565;28;19925;-68
2022/09/30 06:26:04;;;;;;;;;;;4.80;99.90;;;;;;4990820;28;19926;-68
2022/09/30 06:28:34;;;;;;;;;;;4.80;99.90;;;;;;4990728;28;20304;-67
2022/09/30 06:31:00;;;;;;;;;;;4.90;99.90;;;;;;4988587;28;19926;-70
2022/09/30 06:33:27;;;;;;;;;;;5.00;99.90;;;;;;4971076;28;19933;-68
2022/09/30 06:35:54;;;;;;;;;;;5.10;99.90;;;;;;4969709;28;19926;-67
2022/09/30 06:38:22;;;;;;;;;;;5.20;99.90;;;;;;4970350;28;19930;-68
2022/09/30 06:40:50;;;;;;;;;;;5.30;99.90;;;;;;4972490;28;19970;-67
2022/09/30 06:43:16;;;;;;;;;;;5.40;99.90;;;;;;4975237;28;19937;-67
2022/09/30 06:45:44;;;;;;;;;;;5.50;99.90;;;;;;4975432;28;19926;-68
2022/09/30 06:48:11;;;;;;;;;;;5.60;99.90;;;;;;4974419;28;19997;-70
2022/09/30 06:50:38;;;;;;;;;;;5.70;99.90;;;;;;4974602;28;20471;-67
2022/09/30 06:53:06;;;;;;;;;;;5.70;99.90;;;;;;4974580;28;19927;-67
2022/09/30 06:55:35;;;;;;;;;;;5.90;99.90;;;;;;4975038;28;19933;-68
2022/09/30 06:58:03;;;;;;;;;;;6.10;99.90;;;;;;4974927;28;19926;-69
2022/09/30 07:00:30;;;;;;;;;;;6.20;99.90;;;;;;4974611;28;20290;-68
2022/09/30 07:02:57;;;;;;;;;;;6.20;99.90;;;;;;4973921;28;20337;-68
2022/09/30 07:05:25;;;;;;;;;;;6.30;99.90;;;;;;4974876;28;19981;-67
2022/09/30 07:07:52;;;;;;;;;;;6.40;99.90;;;;;;4974779;28;19926;-67
2022/09/30 07:10:19;;;;;;;;;;;6.60;99.90;;;;;;4976590;28;19926;-69
2022/09/30 07:12:49;;;;;;;;;;;6.60;99.90;;;;;;4993616;28;19929;-68
2022/09/30 07:15:18;;;;;;;;;;;6.80;99.90;;;;;;4994195;28;19976;-68
2022/09/30 07:17:50;;;;;;;;;;;6.90;99.90;;;;;;4993910;28;19934;-69
2022/09/30 07:20:17;;;;;;;;;;;7.00;99.90;;;;;;4993812;28;19973;-68
2022/09/30 07:22:45;;;;;;;;;;;7.10;99.90;;;;;;4993632;28;19976;-68
2022/09/30 07:25:13;;;;;;;;;;;7.20;99.90;;;;;;4993791;28;19926;-70
2022/09/30 07:27:39;;;;;;;;;;;7.30;99.90;;;;;;4993660;28;20300;-68
2022/09/30 07:30:07;;;;;;;;;;;7.40;99.90;;;;;;4993433;28;19930;-68
2022/09/30 07:32:35;;;;;;;;;;;7.50;99.90;;;;;;4993570;28;19989;-67
2022/09/30 07:35:02;;;;;;;;;;;7.60;99.90;;;;;;4994091;28;19926;-69
2022/09/30 07:37:29;;;;;;;;;;;7.80;99.90;;;;;;4993703;28;19930;-68
2022/09/30 07:39:55;;;;;;;;;;;7.90;99.90;;;;;;4993575;28;19969;-67
2022/09/30 07:42:22;;;;;;;;;;;8.00;99.90;;;;;;4993092;28;19936;-69
2022/09/30 07:44:50;;;;;;;;;;;8.10;99.90;;;;;;4993193;28;20363;-68
2022/09/30 07:47:17;;;;;;;;;;;8.30;99.90;;;;;;4993098;28;19961;-67
2022/09/30 07:49:46;;;;;;;;;;;8.40;99.90;;;;;;4994147;28;19930;-67
2022/09/30 07:52:12;;;;;;;;;;;8.60;99.90;;;;;;4993058;28;20336;-68
2022/09/30 07:54:39;;;;;;;;;;;8.70;99.90;;;;;;4993035;28;19925;-68
2022/09/30 07:57:06;;;;;;;;;;;8.80;99.90;;;;;;4993464;28;19957;-68
2022/09/30 07:59:34;;;;;;;;;;;8.90;99.90;;;;;;4993059;28;19960;-67
2022/09/30 08:02:01;;;;;;;;;;;9.00;99.90;;;;;;4992805;28;19949;-67
2022/09/30 08:04:27;;;;;;;;;;;9.10;99.90;;;;;;4992765;28;19933;-69
2022/09/30 08:06:57;;;;;;;;;;;9.30;99.90;;;;;;4993010;28;19977;-68
2022/09/30 08:09:24;;;;;;;;;;;9.40;99.90;;;;;;4992812;28;20392;-68
2022/09/30 08:11:51;;;;;;;;;;;9.50;99.90;;;;;;4978329;28;19981;-67
2022/09/30 08:14:19;;;;;;;;;;;9.60;99.90;;;;;;4973276;28;19977;-69
2022/09/30 08:16:46;;;;;;;;;;;9.80;99.90;;;;;;5005901;28;19930;-67
2022/09/30 08:19:14;;;;;;;;;;;9.80;99.90;;;;;;4973132;28;19934;-69
2022/09/30 08:21:41;;;;;;;;;;;10.00;99.90;;;;;;5005503;28;19937;-69
2022/09/30 08:24:09;;;;;;;;;;;10.10;99.90;;;;;;5005906;28;19965;-68
2022/09/30 08:26:36;;;;;;;;;;;10.20;99.90;;;;;;5005820;28;19926;-67
2022/09/30 08:29:03;;;;;;;;;;;10.30;99.90;;;;;;4972702;28;19930;-69
2022/09/30 08:31:32;;;;;;;;;;;10.40;99.90;;;;;;4972819;28;19925;-68
2022/09/30 08:33:59;;;;;;;;;;;10.50;99.90;;;;;;4972792;28;20028;-68
2022/09/30 08:36:26;;;;;;;;;;;10.60;99.90;;;;;;4973147;28;19984;-68
2022/09/30 08:38:53;;;;;;;;;;;10.70;99.90;;;;;;4972965;28;19938;-68
2022/09/30 08:41:32;;;;;;;;;;;10.90;99.90;;;;;;4972951;28;19926;-68
2022/09/30 08:44:03;;;;;;;;;;;11.00;99.90;;;;;;4972793;28;19926;-68
2022/09/30 08:46:36;;;;;;;;;;;11.10;99.90;;;;;;4972261;28;20408;-67
2022/09/30 08:49:07;;;;;;;;;;;11.20;99.90;;;;;;4972829;28;20070;-68
2022/09/30 08:51:36;;;;;;;;;;;11.30;99.90;;;;;;4972872;28;19937;-68
2022/09/30 08:54:06;;;;;;;;;;;11.50;99.90;;;;;;4972567;28;19930;-68
2022/09/30 08:56:34;;;;;;;;;;;11.60;99.90;;;;;;4972495;28;20464;-68
2022/09/30 08:59:04;;;;;;;;;;;11.70;99.90;;;;;;4971906;28;19933;-70
2022/09/30 09:01:33;;;;;;;;;;;11.90;99.90;;;;;;4972504;28;20353;-69
2022/09/30 09:04:01;;;;;;;;;;;12.00;99.90;;;;;;4971689;28;19949;-68
2022/09/30 09:06:30;;;;;;;;;;;12.20;99.90;;;;;;4972734;28;20357;-68
2022/09/30 09:09:05;;;;;;;;;;;12.20;99.90;;;;;;4972152;28;19926;-68
2022/09/30 09:11:41;;;;;;;;;;;12.40;99.90;;;;;;4972297;28;19930;-68
2022/09/30 09:14:11;;;;;;;;;;;12.60;99.90;;;;;;4972096;28;19981;-68
2022/09/30 09:16:42;;;;;;;;;;;12.60;99.90;;;;;;4972179;28;19985;-69
2022/09/30 09:19:10;;;;;;;;;;;12.70;99.90;;;;;;4971925;28;20021;-67
2022/09/30 09:21:48;;;;;;;;;;;12.80;99.90;;;;;;4972041;28;19927;-69
2022/09/30 09:24:17;;;;;;;;;;;12.90;99.90;;;;;;4971679;28;19965;-68
2022/09/30 09:26:46;;;;;;;;;;;12.90;99.90;;;;;;4972208;28;19980;-67
2022/09/30 09:29:22;;;;;;;;;;;13.10;99.90;;;;;;5004322;28;20029;-68
2022/09/30 09:31:49;;;;;;;;;;;13.20;99.90;;;;;;4971926;28;19926;-70
2022/09/30 09:34:15;;;;;;;;;;;13.30;99.90;;;;;;4971269;28;19930;-68
2022/09/30 09:36:47;;;;;;;;;;;13.40;99.90;;;;;;4971579;28;19973;-68
2022/09/30 09:39:25;;;;;;;;;;;13.50;99.90;;;;;;4965135;28;20017;-69
2022/09/30 09:41:58;;;;;;;;;;;13.70;99.90;;;;;;4972864;28;19926;-68
2022/09/30 09:44:27;;;;;;;;;;;13.80;99.90;;;;;;4971426;28;20037;-68
2022/09/30 09:47:00;;;;;;;;;;;13.80;99.90;;;;;;4971316;28;19980;-68
2022/09/30 09:49:29;;;;;;;;;;;13.80;99.90;;;;;;4971584;28;20377;-70
2022/09/30 09:52:02;;;;;;;;;;;14.00;99.90;;;;;;4969565;28;20290;-68
2022/09/30 09:54:30;;;;;;;;;;;14.10;99.90;;;;;;4971393;28;19926;-69
2022/09/30 09:57:06;;;;;;;;;;;14.20;99.90;;;;;;4968964;28;19936;-70
2022/09/30 09:59:32;;;;;;;;;;;14.30;99.90;;;;;;4968882;28;19926;-68
2022/09/30 10:02:00;;;;;;;;;;;14.50;99.90;;;;;;4971526;28;19926;-68
2022/09/30 10:04:29;;;;;;;;;;;14.50;99.90;;;;;;4972375;28;19989;-68
2022/09/30 10:06:58;;;;;;;;;;;14.60;99.90;;;;;;4987644;28;20381;-69
2022/09/30 10:09:27;;;;;;;;;;;14.80;99.90;;;;;;4970971;28;20360;-68
2022/09/30 10:12:12;;;;;;;;;;;14.70;99.90;;;;;;4986451;28;19929;-68
2022/09/30 10:14:45;;;;;;;;;;;14.80;99.90;;;;;;4990361;28;19933;-68
2022/09/30 10:17:18;;;;;;;;;;;15.10;99.90;;;;;;4990862;28;19925;-68
2022/09/30 10:19:48;;;;;;;;;;;15.30;99.90;;;;;;4990276;28;19974;-68
2022/09/30 10:22:18;;;;;;;;;;;15.60;99.90;;;;;;4990434;28;19938;-68
2022/09/30 10:24:45;;;;;;;;;;;15.60;99.90;;;;;;4990620;28;19937;-69
2022/09/30 10:27:26;;;;;;;;;;;15.60;99.90;;;;;;4990450;28;19933;-69
2022/09/30 10:29:54;;;;;;;;;;;15.70;99.90;;;;;;4990176;28;20344;-68
2022/09/30 10:32:21;;;;;;;;;;;15.90;99.90;;;;;;4990839;28;19968;-68
2022/09/30 10:34:55;;;;;;;;;;;15.80;99.90;;;;;;4972755;28;20016;-68
2022/09/30 10:37:23;;;;;;;;;;;16.00;99.90;;;;;;4951725;29;19927;-67
2022/09/30 10:39:52;;;;;;;;;;;16.00;99.90;;;;;;4968982;28;19961;-69
2022/09/30 10:42:20;;;;;;;;;;;16.10;99.90;;;;;;4964263;28;20452;-68
2022/09/30 10:44:47;;;;;;;;;;;16.30;99.90;;;;;;4970313;28;20020;-69
2022/09/30 10:47:16;;;;;;;;;;;16.60;99.90;;;;;;4969624;28;20304;-75
2022/09/30 10:49:45;;;;;;;;;;;16.90;99.90;;;;;;4971071;28;19934;-68
2022/09/30 10:52:17;;;;;;;;;;;17.30;99.90;;;;;;4971548;28;20021;-68
2022/09/30 10:54:47;;;;;;;;;;;17.60;99.90;;;;;;4971585;28;19926;-68
2022/09/30 10:57:14;;;;;;;;;;;17.60;99.90;;;;;;4971592;28;20341;-68
2022/09/30 10:59:42;;;;;;;;;;;17.40;99.90;;;;;;4972718;28;19972;-69
2022/09/30 11:02:16;;;;;;;;;;;17.70;99.90;;;;;;4971654;28;19933;-69
2022/09/30 11:04:47;;;;;;;;;;;17.80;99.90;;;;;;4971613;28;19926;-68
2022/09/30 11:07:16;;;;;;;;;;;18.00;99.90;;;;;;4971827;28;19989;-68
2022/09/30 11:09:47;;;;;;;;;;;17.60;99.90;;;;;;4962676;28;20025;-69
2022/09/30 11:12:16;;;;;;;;;;;17.80;99.90;;;;;;4972714;28;19926;-68
2022/09/30 11:14:46;;;;;;;;;;;20.10;99.90;;;;;;4962244;28;19990;-68
2022/09/30 11:17:21;;;;;;;;;;;19.70;99.90;;;;;;4971049;28;19932;-71
2022/09/30 11:19:52;;;;;;;;;;;20.80;99.90;;;;;;4970954;28;20021;-66
2022/09/30 11:22:27;;;;;;;;;;;25.10;99.90;;;;;;4981271;28;20024;-66
2022/09/30 11:24:56;;;;;;;;;;;27.10;99.90;;;;;;4976178;28;19926;-66
2022/09/30 11:27:26;;;;;;;;;;;28.50;99.90;;;;;;4973286;28;19930;-66
2022/09/30 11:29:59;;;;;;;;;;;28.80;99.90;;;;;;4969295;28;19973;-69
2022/09/30 11:32:32;;;;;;;;;;;28.20;99.90;;;;;;4974680;28;20032;-68
2022/09/30 11:35:03;;;;;;;;;;;28.60;99.90;;;;;;4975059;28;20016;-69
2022/09/30 11:37:36;;;;;;;;;;;29.90;99.90;;;;;;4974859;28;19946;-68
2022/09/30 11:40:18;;;;;;;;;;;28.60;99.90;;;;;;4974582;28;19966;-68
2022/09/30 11:42:47;;;;;;;;;;;28.90;99.90;;;;;;4965449;28;20397;-66
2022/09/30 11:45:32;;;;;;;;;;;31.70;99.90;;;;;;4974995;28;19926;-69
2022/09/30 11:48:10;;;;;;;;;;;31.70;99.90;;;;;;4974792;28;19934;-68
2022/09/30 11:50:45;;;;;;;;;;;32.30;99.90;;;;;;4974544;28;20053;-68
2022/09/30 11:53:15;;;;;;;;;;;32.00;99.90;;;;;;4974448;28;19976;-68
2022/09/30 11:55:52;;;;;;;;;;;32.50;99.90;;;;;;4974887;28;20521;-69
2022/09/30 11:58:20;;;;;;;;;;;34.10;99.90;;;;;;4974448;28;19926;-69
2022/09/30 12:00:49;;;;;;;;;;;32.90;99.90;;;;;;4974255;28;19930;-69
2022/09/30 12:03:18;;;;;;;;;;;32.30;99.90;;;;;;4974624;28;19930;-68
2022/09/30 12:05:48;;;;;;;;;;;30.60;99.90;;;;;;5000116;23;20309;-68
2022/09/30 12:08:17;;;;;;;;;;;29.80;99.90;;;;;;4974593;28;19925;-69
2022/09/30 12:10:47;;;;;;;;;;;30.40;99.90;;;;;;4981269;28;19969;-68
2022/09/30 12:13:16;;;;;;;;;;;31.60;99.90;;;;;;4982231;28;19997;-69
2022/09/30 12:15:44;;;;;;;;;;;30.40;99.90;;;;;;4971437;28;19930;-69
2022/09/30 12:18:13;;;;;;;;;;;29.60;99.90;;;;;;4974105;28;19935;-70
2022/09/30 12:20:42;;;;;;;;;;;27.70;99.90;;;;;;4974327;28;20359;-69
2022/09/30 12:23:16;;;;;;;;;;;28.00;99.90;;;;;;4974452;28;19981;-69
2022/09/30 12:25:46;;;;;;;;;;;30.70;99.90;;;;;;4974419;28;19926;-69
2022/09/30 12:31:07;;;;;;;;;;;32.00;99.90;;;;;;4973917;28;19973;-68
2022/09/30 12:33:46;;;;;;;;;;;30.70;99.90;;;;;;4974141;28;20364;-70
2022/09/30 12:36:33;;;;;;;;;;;30.60;99.90;;;;;;4973937;28;19954;-68
2022/09/30 12:39:24;;;;;;;;;;;29.20;99.90;;;;;;4972713;28;19969;-69
2022/09/30 12:41:59;;;;;;;;;;;27.90;99.90;;;;;;4974143;28;19926;-67
2022/09/30 12:44:34;;;;;;;;;;;28.50;99.90;;;;;;4974956;28;19930;-67
2022/09/30 12:47:11;;;;;;;;;;;28.40;99.90;;;;;;4974176;28;19930;-69
2022/09/30 12:49:40;;;;;;;;;;;30.40;99.90;;;;;;4973848;28;19969;-68
2022/09/30 12:52:08;;;;;;;;;;;28.30;99.90;;;;;;4973709;28;20341;-67
2022/09/30 12:54:39;;;;;;;;;;;28.50;99.90;;;;;;4973319;28;19929;-70
2022/09/30 12:57:08;;;;;;;;;;;28.30;99.90;;;;;;4973632;28;19926;-69
2022/09/30 12:59:35;;;;;;;;;;;26.70;99.90;;;;;;4973217;28;19926;-69
2022/09/30 13:02:03;;;;;;;;;;;27.50;99.90;;;;;;4973778;28;20274;-69
2022/09/30 13:04:32;;;;;;;;;;;26.80;99.90;;;;;;4973395;28;19926;-70
2022/09/30 13:07:05;;;;;;;;;;;27.30;99.90;;;;;;4973537;28;19926;-69
2022/09/30 13:09:33;;;;;;;;;;;27.30;99.90;;;;;;4972950;28;19942;-69
2022/09/30 13:12:24;;;;;;;;;;;26.70;99.90;;;;;;4973550;28;19949;-69
2022/09/30 13:15:10;;;;;;;;;;;26.80;99.90;;;;;;4973206;28;19930;-69
2022/09/30 13:17:37;;;;;;;;;;;26.40;99.90;;;;;;4973102;28;19973;-68
2022/09/30 13:20:34;;;;;;;;;;;26.10;99.90;;;;;;4973097;28;19930;-69
2022/09/30 13:23:01;;;;;;;;;;;25.70;99.90;;;;;;4972613;28;19926;-69
2022/09/30 13:25:48;;;;;;;;;;;26.60;99.90;;;;;;4972920;28;20385;-69
2022/09/30 13:28:30;;;;;;;;;;;26.10;99.90;;;;;;4973189;28;19926;-69
2022/09/30 13:31:17;;;;;;;;;;;25.80;99.90;;;;;;4972791;28;20456;-70
2022/09/30 13:33:45;;;;;;;;;;;26.40;99.90;;;;;;4972760;28;19926;-69
2022/09/30 13:36:17;;;;;;;;;;;25.50;99.90;;;;;;4973204;28;19933;-67
2022/09/30 13:38:44;;;;;;;;;;;25.60;99.90;;;;;;4973143;28;20360;-69
2022/09/30 13:41:16;;;;;;;;;;;25.50;99.90;;;;;;4966567;28;19930;-69
2022/09/30 13:43:49;;;;;;;;;;;25.70;99.90;;;;;;4971853;28;19973;-70
2022/09/30 13:46:22;;;;;;;;;;;24.70;99.90;;;;;;4972138;28;19926;-70
2022/09/30 13:48:51;;;;;;;;;;;24.30;99.90;;;;;;4972125;28;20115;-70
2022/09/30 13:51:20;;;;;;;;;;;24.10;99.90;;;;;;4971928;28;19930;-71
2022/09/30 13:53:50;;;;;;;;;;;24.10;99.90;;;;;;4971730;28;20333;-70
2022/09/30 13:56:19;;;;;;;;;;;25.00;99.90;;;;;;4972307;28;19926;-70
2022/09/30 13:59:06;;;;;;;;;;;24.00;99.90;;;;;;4972113;28;20001;-69
2022/09/30 14:01:42;;;;;;;;;;;24.00;99.90;;;;;;4972083;28;19926;-70
2022/09/30 14:04:24;;;;;;;;;;;24.10;99.90;;;;;;4971594;28;20024;-71
2022/09/30 14:06:58;;;;;;;;;;;24.30;99.90;;;;;;4971951;28;20507;-70
2022/09/30 14:09:36;;;;;;;;;;;23.60;99.90;;;;;;4971788;28;19930;-69
2022/09/30 14:12:11;;;;;;;;;;;23.70;99.90;;;;;;4955693;28;19953;-70
2022/09/30 14:14:53;;;;;;;;;;;24.10;99.90;;;;;;4952665;28;19927;-72
2022/09/30 14:17:25;;;;;;;;;;;24.00;99.90;;;;;;4952724;29;19926;-71
2022/09/30 14:19:57;;;;;;;;;;;24.90;99.90;;;;;;4952266;29;19982;-69
2022/09/30 14:22:25;;;;;;;;;;;25.30;99.90;;;;;;4952085;29;19956;-71
2022/09/30 14:24:52;;;;;;;;;;;25.10;99.90;;;;;;4951934;28;20341;-71
2022/09/30 14:27:29;;;;;;;;;;;25.60;99.90;;;;;;4952407;29;20457;-72
2022/09/30 14:30:02;;;;;;;;;;;23.70;99.90;;;;;;4951903;29;20353;-70
2022/09/30 14:32:31;;;;;;;;;;;23.50;99.90;;;;;;4951699;29;19966;-71
2022/09/30 14:34:58;;;;;;;;;;;23.80;99.90;;;;;;4951664;28;19927;-70
2022/09/30 14:37:27;;;;;;;;;;;23.90;99.90;;;;;;4955774;28;19930;-71
2022/09/30 14:39:54;;;;;;;;;;;22.90;99.90;;;;;;4951235;29;19926;-71
2022/09/30 14:42:24;;;;;;;;;;;23.20;99.90;;;;;;4951611;29;20301;-70
2022/09/30 14:44:53;;;;;;;;;;;24.00;99.90;;;;;;4951923;28;19977;-71
2022/09/30 14:47:21;;;;;;;;;;;23.60;99.90;;;;;;4952018;29;19926;-71
2022/09/30 14:49:48;;;;;;;;;;;23.40;99.90;;;;;;4951823;29;19933;-71
2022/09/30 14:52:35;;;;;;;;;;;23.30;99.90;;;;;;4951880;29;19927;-71
2022/09/30 14:55:03;;;;;;;;;;;24.20;99.90;;;;;;4951607;28;19962;-71
2022/09/30 14:57:33;;;;;;;;;;;24.00;99.90;;;;;;4954124;28;19931;-72
2022/09/30 15:00:14;;;;;;;;;;;24.20;99.90;;;;;;4951601;29;19926;-72
2022/09/30 15:02:45;;;;;;;;;;;23.00;99.90;;;;;;4953733;28;19933;-71
2022/09/30 15:05:12;;;;;;;;;;;22.30;99.90;;;;;;4955090;28;19930;-69
2022/09/30 15:07:40;;;;;;;;;;;23.20;99.90;;;;;;4955690;29;19962;-71
2022/09/30 15:10:07;;;;;;;;;;;23.50;99.90;;;;;;4955067;29;19926;-72
2022/09/30 15:12:36;;;;;;;;;;;23.60;99.90;;;;;;4955041;29;19933;-73
2022/09/30 15:15:22;;;;;;;;;;;23.60;99.90;;;;;;4955393;29;19927;-72
2022/09/30 15:17:54;;;;;;;;;;;23.60;99.90;;;;;;4955477;29;19982;-72
2022/09/30 15:20:26;;;;;;;;;;;24.00;99.90;;;;;;4957227;28;20345;-71
2022/09/30 15:22:53;;;;;;;;;;;24.30;99.90;;;;;;4957919;28;20316;-71
2022/09/30 15:25:21;;;;;;;;;;;25.10;99.90;;;;;;4968999;28;19927;-70
2022/09/30 15:27:48;;;;;;;;;;;23.90;99.90;;;;;;4965567;28;19988;-72
2022/09/30 15:30:23;;;;;;;;;;;24.10;99.90;;;;;;4960395;28;20427;-72
2022/09/30 15:32:56;;;;;;;;;;;23.90;99.90;;;;;;4962275;28;19930;-71
2022/09/30 15:35:23;;;;;;;;;;;24.10;99.90;;;;;;4962617;28;19977;-72
2022/09/30 15:37:50;;;;;;;;;;;23.90;99.90;;;;;;4965707;28;19926;-71
2022/09/30 15:43:05;;;;;;;;;;;22.90;99.90;;;;;;4961033;28;20009;-73
2022/09/30 15:45:33;;;;;;;;;;;22.90;99.90;;;;;;4954607;28;19930;-72
2022/09/30 15:48:04;;;;;;;;;;;23.10;99.90;;;;;;4954407;29;20346;-72
2022/09/30 15:50:38;;;;;;;;;;;22.90;99.90;;;;;;4954369;29;20457;-72
2022/09/30 15:53:05;;;;;;;;;;;22.30;99.90;;;;;;4954345;28;19954;-73
2022/09/30 15:55:41;;;;;;;;;;;21.20;99.90;;;;;;4954441;28;19927;-72
2022/09/30 15:58:32;;;;;;;;;;;21.30;99.90;;;;;;4954508;28;19927;-73
2022/09/30 16:01:09;;;;;;;;;;;21.60;99.90;;;;;;4954228;28;20337;-72
2022/09/30 16:03:37;;;;;;;;;;;21.20;99.90;;;;;;4954186;29;19930;-72
2022/09/30 16:06:05;;;;;;;;;;;20.70;99.90;;;;;;4954690;28;19930;-71
2022/09/30 16:08:36;;;;;;;;;;;21.00;99.90;;;;;;4955260;29;20118;-71
2022/09/30 16:11:02;;;;;;;;;;;21.20;99.90;;;;;;4954421;28;19930;-70
2022/09/30 16:13:30;;;;;;;;;;;20.50;99.90;;;;;;4954908;28;20429;-71
2022/09/30 16:15:58;;;;;;;;;;;20.40;99.90;;;;;;4954904;29;20028;-71
2022/09/30 16:18:26;;;;;;;;;;;20.10;99.90;;;;;;4955296;29;19926;-70
2022/09/30 16:20:58;;;;;;;;;;;19.60;99.90;;;;;;4954885;29;19938;-70
2022/09/30 16:23:29;;;;;;;;;;;18.90;99.90;;;;;;4954710;29;19926;-70
2022/09/30 16:26:23;;;;;;;;;;;18.70;99.90;;;;;;4955187;28;19927;-70
2022/09/30 16:28:50;;;;;;;;;;;18.40;99.90;;;;;;4937245;29;19974;-70
2022/09/30 16:31:17;;;;;;;;;;;18.10;99.90;;;;;;4955012;28;20413;-72
2022/09/30 16:33:44;;;;;;;;;;;17.90;99.90;;;;;;4954685;29;19977;-71
2022/09/30 16:36:13;;;;;;;;;;;17.60;99.90;;;;;;4954920;28;20005;-71
2022/09/30 16:38:40;;;;;;;;;;;17.40;99.90;;;;;;4954543;28;19926;-72
2022/09/30 16:41:09;;;;;;;;;;;17.20;99.90;;;;;;4954814;29;19927;-71
2022/09/30 16:43:37;;;;;;;;;;;17.10;99.90;;;;;;4954364;29;19927;-72
2022/09/30 16:46:04;;;;;;;;;;;17.00;99.90;;;;;;4954544;28;19926;-71
2022/09/30 16:48:31;;;;;;;;;;;16.80;99.90;;;;;;4954377;29;19926;-71
2022/09/30 16:51:01;;;;;;;;;;;16.70;99.90;;;;;;4954437;29;19926;-72
2022/09/30 16:53:30;;;;;;;;;;;16.50;99.90;;;;;;4954212;29;19931;-71
2022/09/30 16:55:56;;;;;;;;;;;16.30;99.90;;;;;;4954600;28;20350;-71
2022/09/30 16:58:23;;;;;;;;;;;16.10;99.90;;;;;;4954093;29;20376;-72
2022/09/30 17:00:51;;;;;;;;;;;16.00;99.90;;;;;;4954330;29;19974;-70
2022/09/30 17:03:19;;;;;;;;;;;15.80;99.90;;;;;;4953858;29;20013;-70
2022/09/30 17:05:52;;;;;;;;;;;15.70;99.90;;;;;;4954212;28;20279;-71
2022/09/30 17:08:19;;;;;;;;;;;15.50;99.90;;;;;;4954499;28;20062;-71
2022/09/30 17:10:48;;;;;;;;;;;15.40;99.90;;;;;;4953879;29;19926;-71
2022/09/30 17:13:16;;;;;;;;;;;15.30;99.90;;;;;;4953892;28;19933;-71
2022/09/30 17:15:43;;;;;;;;;;;15.10;99.90;;;;;;4954146;28;19927;-71
2022/09/30 17:18:11;;;;;;;;;;;15.00;99.90;;;;;;4953900;29;20346;-72
2022/09/30 17:20:42;;;;;;;;;;;14.90;99.90;;;;;;4954061;28;19927;-71
2022/09/30 17:23:09;;;;;;;;;;;14.90;99.90;;;;;;4953992;29;20353;-71
2022/09/30 17:25:39;;;;;;;;;;;14.80;99.90;;;;;;4953881;28;19961;-71
2022/09/30 17:28:08;;;;;;;;;;;14.70;99.90;;;;;;4953892;28;20356;-71
2022/09/30 17:30:34;;;;;;;;;;;14.60;99.90;;;;;;4953873;28;19927;-71
2022/09/30 17:33:01;;;;;;;;;;;14.50;99.90;;;;;;4954772;28;19981;-71
2022/09/30 17:35:29;;;;;;;;;;;14.50;99.90;;;;;;4953579;29;20489;-71
2022/09/30 17:37:57;;;;;;;;;;;14.40;99.90;;;;;;4953581;29;20349;-71
2022/09/30 17:43:12;;;;;;;;;;;14.30;99.90;;;;;;4952665;29;19968;-71
2022/09/30 17:45:40;;;;;;;;;;;14.30;99.90;;;;;;4953471;29;19926;-71